sensor_id;sensor_type;location;lat;lon;timestamp;pressure;altitude;pressure_sealevel;temperature;humidity
77877;BME280;67251;50.844;7.978;2024-03-23T00:55:32;97910.53;;;6.47;100.00
77877;BME280;67251;50.844;7.978;2024-03-23T00:57:58;97918.16;;;6.56;100.00
77877;BME280;67251;50.844;7.978;2024-03-23T01:00:23;97932.47;;;6.62;100.00
77877;BME280;67251;50.844;7.978;2024-03-23T01:02:48;97930.03;;;6.60;100.00
77877;BME280;67251;50.844;7.978;2024-03-23T01:05:14;97925.09;;;6.57;100.00
77877;BME280;67251;50.844;7.978;2024-03-23T01:07:39;97921.41;;;6.52;100.00
77877;BME280;67251;50.844;7.978;2024-03-23T01:10:05;97909.72;;;6.46;100.00
77877;BME280;67251;50.844;7.978;2024-03-23T01:12:30;97906.84;;;6.41;100.00
77877;BME280;67251;50.844;7.978;2024-03-23T01:14:55;97910.25;;;6.35;100.00
77877;BME280;67251;50.844;7.978;2024-03-23T01:17:21;97919.47;;;6.32;100.00
77877;BME280;67251;50.844;7.978;2024-03-23T01:19:46;97909.44;;;6.28;100.00
77877;BME280;67251;50.844;7.978;2024-03-23T01:22:11;97912.69;;;6.23;100.00
77877;BME280;67251;50.844;7.978;2024-03-23T01:24:37;97910.59;;;6.19;100.00
77877;BME280;67251;50.844;7.978;2024-03-23T01:27:03;97905.88;;;6.14;100.00
77877;BME280;67251;50.844;7.978;2024-03-23T01:29:28;97901.16;;;6.09;100.00
77877;BME280;67251;50.844;7.978;2024-03-23T01:31:54;97908.28;;;6.02;100.00
77877;BME280;67251;50.844;7.978;2024-03-23T01:34:19;97920.31;;;5.98;100.00
77877;BME280;67251;50.844;7.978;2024-03-23T01:36:46;97921.88;;;5.93;100.00
77877;BME280;67251;50.844;7.978;2024-03-23T01:41:46;97929.72;;;5.79;100.00
77877;BME280;67251;50.844;7.978;2024-03-23T01:44:12;97918.22;;;5.72;100.00
77877;BME280;67251;50.844;7.978;2024-03-23T01:46:38;97914.28;;;5.61;100.00
77877;BME280;67251;50.844;7.978;2024-03-23T01:49:06;97930.09;;;5.48;100.00
77877;BME280;67251;50.844;7.978;2024-03-23T01:51:33;97926.69;;;5.33;100.00
77877;BME280;67251;50.844;7.978;2024-03-23T01:53:59;97925.66;;;5.12;100.00
77877;BME280;67251;50.844;7.978;2024-03-23T01:56:32;97940.19;;;4.95;100.00
77877;BME280;67251;50.844;7.978;2024-03-23T01:59:04;97942.13;;;4.86;100.00
77877;BME280;67251;50.844;7.978;2024-03-23T02:01:30;97939.31;;;4.73;100.00
77877;BME280;67251;50.844;7.978;2024-03-23T02:03:57;97929.66;;;4.66;100.00
77877;BME280;67251;50.844;7.978;2024-03-23T02:06:24;97937.53;;;4.59;100.00
77877;BME280;67251;50.844;7.978;2024-03-23T02:08:49;97938.91;;;4.55;100.00
77877;BME280;67251;50.844;7.978;2024-03-23T02:11:14;97930.22;;;4.46;100.00
77877;BME280;67251;50.844;7.978;2024-03-23T02:13:40;97942.31;;;4.34;100.00
77877;BME280;67251;50.844;7.978;2024-03-23T02:16:05;97929.44;;;4.31;100.00
77877;BME280;67251;50.844;7.978;2024-03-23T02:18:32;97927.88;;;4.22;100.00
77877;BME280;67251;50.844;7.978;2024-03-23T02:20:57;97917.22;;;4.15;100.00
77877;BME280;67251;50.844;7.978;2024-03-23T02:23:22;97920.56;;;4.09;100.00
77877;BME280;67251;50.844;7.978;2024-03-23T02:25:49;97921.50;;;4.01;100.00
77877;BME280;67251;50.844;7.978;2024-03-23T02:28:14;97916.94;;;3.95;100.00
77877;BME280;67251;50.844;7.978;2024-03-23T02:30:40;97912.28;;;3.97;100.00
77877;BME280;67251;50.844;7.978;2024-03-23T02:33:05;97918.31;;;3.91;100.00
77877;BME280;67251;50.844;7.978;2024-03-23T02:35:31;97920.28;;;3.89;100.00
77877;BME280;67251;50.844;7.978;2024-03-23T02:37:56;97912.81;;;3.93;100.00
77877;BME280;67251;50.844;7.978;2024-03-23T02:40:23;97909.72;;;3.89;100.00
77877;BME280;67251;50.844;7.978;2024-03-23T02:42:49;97912.06;;;3.84;100.00
77877;BME280;67251;50.844;7.978;2024-03-23T02:45:14;97902.97;;;3.87;100.00
77877;BME280;67251;50.844;7.978;2024-03-23T02:47:39;97915.66;;;3.91;100.00
77877;BME280;67251;50.844;7.978;2024-03-23T02:50:06;97924.13;;;3.87;100.00
77877;BME280;67251;50.844;7.978;2024-03-23T02:52:32;97915.53;;;3.84;100.00
77877;BME280;67251;50.844;7.978;2024-03-23T02:54:57;97908.25;;;3.87;100.00
77877;BME280;67251;50.844;7.978;2024-03-23T02:57:23;97897.22;;;3.83;100.00
77877;BME280;67251;50.844;7.978;2024-03-23T02:59:48;97898.22;;;3.82;100.00
77877;BME280;67251;50.844;7.978;2024-03-23T03:02:15;97904.97;;;3.84;100.00
77877;BME280;67251;50.844;7.978;2024-03-23T03:04:40;97894.75;;;3.81;100.00
77877;BME280;67251;50.844;7.978;2024-03-23T03:07:06;97906.50;;;3.79;100.00
77877;BME280;67251;50.844;7.978;2024-03-23T03:09:31;97903.88;;;3.79;100.00
77877;BME280;67251;50.844;7.978;2024-03-23T03:11:58;97893.09;;;3.80;100.00
77877;BME280;67251;50.844;7.978;2024-03-23T03:14:23;97901.69;;;3.82;100.00
77877;BME280;67251;50.844;7.978;2024-03-23T03:16:48;97900.88;;;3.82;100.00
77877;BME280;67251;50.844;7.978;2024-03-23T03:19:14;97896.41;;;3.82;100.00
77877;BME280;67251;50.844;7.978;2024-03-23T03:21:41;97904.97;;;3.84;100.00
77877;BME280;67251;50.844;7.978;2024-03-23T03:24:07;97899.19;;;3.81;100.00
77877;BME280;67251;50.844;7.978;2024-03-23T03:26:32;97911.81;;;3.79;100.00
77877;BME280;67251;50.844;7.978;2024-03-23T03:28:57;97904.88;;;3.78;100.00
77877;BME280;67251;50.844;7.978;2024-03-23T03:31:23;97904.22;;;3.76;100.00
77877;BME280;67251;50.844;7.978;2024-03-23T03:33:49;97908.53;;;3.77;100.00
77877;BME280;67251;50.844;7.978;2024-03-23T03:36:16;97903.22;;;3.77;100.00
77877;BME280;67251;50.844;7.978;2024-03-23T03:38:41;97910.50;;;3.75;100.00
77877;BME280;67251;50.844;7.978;2024-03-23T03:41:06;97907.25;;;3.73;100.00
77877;BME280;67251;50.844;7.978;2024-03-23T03:43:32;97907.59;;;3.70;100.00
77877;BME280;67251;50.844;7.978;2024-03-23T03:45:59;97911.59;;;3.66;100.00
77877;BME280;67251;50.844;7.978;2024-03-23T03:48:25;97910.69;;;3.58;100.00
77877;BME280;67251;50.844;7.978;2024-03-23T03:50:50;97915.69;;;3.53;100.00
77877;BME280;67251;50.844;7.978;2024-03-23T03:53:15;97925.63;;;3.51;100.00
77877;BME280;67251;50.844;7.978;2024-03-23T03:55:41;97927.78;;;3.48;100.00
77877;BME280;67251;50.844;7.978;2024-03-23T03:58:07;97922.69;;;3.46;100.00
77877;BME280;67251;50.844;7.978;2024-03-23T04:00:32;97925.53;;;3.45;100.00
77877;BME280;67251;50.844;7.978;2024-03-23T04:02:57;97935.28;;;3.44;100.00
77877;BME280;67251;50.844;7.978;2024-03-23T04:05:23;97943.28;;;3.36;100.00
77877;BME280;67251;50.844;7.978;2024-03-23T04:07:49;97938.31;;;3.33;100.00
77877;BME280;67251;50.844;7.978;2024-03-23T04:10:14;97936.75;;;3.24;100.00
77877;BME280;67251;50.844;7.978;2024-03-23T04:12:40;97921.41;;;3.19;100.00
77877;BME280;67251;50.844;7.978;2024-03-23T04:15:06;97942.44;;;3.13;100.00
77877;BME280;67251;50.844;7.978;2024-03-23T04:17:32;97932.13;;;3.03;100.00
77877;BME280;67251;50.844;7.978;2024-03-23T04:19:59;97934.63;;;2.96;100.00
77877;BME280;67251;50.844;7.978;2024-03-23T04:22:25;97935.00;;;2.93;100.00
77877;BME280;67251;50.844;7.978;2024-03-23T04:24:54;97957.81;;;2.86;100.00
77877;BME280;67251;50.844;7.978;2024-03-23T04:27:20;97955.03;;;2.79;100.00
77877;BME280;67251;50.844;7.978;2024-03-23T04:29:49;97958.38;;;2.73;100.00
77877;BME280;67251;50.844;7.978;2024-03-23T04:32:15;97954.47;;;2.61;100.00
77877;BME280;67251;50.844;7.978;2024-03-23T04:34:41;97953.06;;;2.50;100.00
77877;BME280;67251;50.844;7.978;2024-03-23T04:37:07;97954.06;;;2.41;100.00
77877;BME280;67251;50.844;7.978;2024-03-23T04:39:33;97960.38;;;2.32;100.00
77877;BME280;67251;50.844;7.978;2024-03-23T04:41:58;97965.50;;;2.25;100.00
77877;BME280;67251;50.844;7.978;2024-03-23T04:44:23;97966.38;;;2.18;100.00
77877;BME280;67251;50.844;7.978;2024-03-23T04:46:49;97972.97;;;2.14;100.00
77877;BME280;67251;50.844;7.978;2024-03-23T04:49:14;97984.53;;;2.13;100.00
77877;BME280;67251;50.844;7.978;2024-03-23T04:51:39;97995.72;;;2.07;100.00
77877;BME280;67251;50.844;7.978;2024-03-23T04:54:06;97993.09;;;2.07;100.00
77877;BME280;67251;50.844;7.978;2024-03-23T04:56:32;98000.69;;;2.01;100.00
77877;BME280;67251;50.844;7.978;2024-03-23T04:58:58;98014.25;;;1.98;100.00
77877;BME280;67251;50.844;7.978;2024-03-23T05:01:27;98012.75;;;1.96;100.00
77877;BME280;67251;50.844;7.978;2024-03-23T05:03:52;98016.19;;;1.88;100.00
77877;BME280;67251;50.844;7.978;2024-03-23T05:06:18;98025.47;;;1.84;100.00
77877;BME280;67251;50.844;7.978;2024-03-23T05:08:45;98013.59;;;1.80;100.00
77877;BME280;67251;50.844;7.978;2024-03-23T05:11:11;98013.28;;;1.75;100.00
77877;BME280;67251;50.844;7.978;2024-03-23T05:13:36;98014.59;;;1.71;100.00
77877;BME280;67251;50.844;7.978;2024-03-23T05:16:02;98013.91;;;1.69;100.00
77877;BME280;67251;50.844;7.978;2024-03-23T05:18:27;98025.13;;;1.63;100.00
77877;BME280;67251;50.844;7.978;2024-03-23T05:20:57;98011.44;;;1.59;100.00
77877;BME280;67251;50.844;7.978;2024-03-23T05:23:23;98007.34;;;1.57;100.00
77877;BME280;67251;50.844;7.978;2024-03-23T05:25:48;97998.75;;;1.54;100.00
77877;BME280;67251;50.844;7.978;2024-03-23T05:28:14;98006.84;;;1.53;100.00
77877;BME280;67251;50.844;7.978;2024-03-23T05:30:39;98011.28;;;1.52;100.00
77877;BME280;67251;50.844;7.978;2024-03-23T05:33:06;98006.84;;;1.53;100.00
77877;BME280;67251;50.844;7.978;2024-03-23T05:35:32;98009.78;;;1.50;100.00
77877;BME280;67251;50.844;7.978;2024-03-23T05:37:58;98003.06;;;1.47;100.00
77877;BME280;67251;50.844;7.978;2024-03-23T05:40:25;98007.00;;;1.51;100.00
77877;BME280;67251;50.844;7.978;2024-03-23T05:42:50;98022.66;;;1.53;100.00
77877;BME280;67251;50.844;7.978;2024-03-23T05:45:18;98015.38;;;1.55;100.00
77877;BME280;67251;50.844;7.978;2024-03-23T05:47:44;98011.94;;;1.54;100.00
77877;BME280;67251;50.844;7.978;2024-03-23T05:50:10;98023.81;;;1.59;100.00
77877;BME280;67251;50.844;7.978;2024-03-23T05:52:38;98028.75;;;1.62;100.00
77877;BME280;67251;50.844;7.978;2024-03-23T05:55:04;98027.13;;;1.61;100.00
77877;BME280;67251;50.844;7.978;2024-03-23T05:57:29;98031.22;;;1.63;100.00
77877;BME280;67251;50.844;7.978;2024-03-23T05:59:55;98033.38;;;1.68;100.00
77877;BME280;67251;50.844;7.978;2024-03-23T06:02:20;98031.41;;;1.70;100.00
77877;BME280;67251;50.844;7.978;2024-03-23T06:04:46;98031.72;;;1.75;100.00
77877;BME280;67251;50.844;7.978;2024-03-23T06:07:11;98040.47;;;1.75;100.00
77877;BME280;67251;50.844;7.978;2024-03-23T06:09:40;98046.88;;;1.81;100.00
77877;BME280;67251;50.844;7.978;2024-03-23T06:12:06;98043.94;;;1.84;100.00
77877;BME280;67251;50.844;7.978;2024-03-23T06:14:31;98050.66;;;1.87;100.00
77877;BME280;67251;50.844;7.978;2024-03-23T06:16:58;98048.53;;;1.90;100.00
77877;BME280;67251;50.844;7.978;2024-03-23T06:19:23;98054.44;;;1.92;100.00
77877;BME280;67251;50.844;7.978;2024-03-23T06:21:49;98060.06;;;1.97;100.00
77877;BME280;67251;50.844;7.978;2024-03-23T06:24:14;98061.38;;;2.01;100.00
77877;BME280;67251;50.844;7.978;2024-03-23T06:26:39;98060.88;;;2.06;100.00
77877;BME280;67251;50.844;7.978;2024-03-23T06:29:05;98057.28;;;2.07;100.00
77877;BME280;67251;50.844;7.978;2024-03-23T06:31:30;98066.16;;;2.06;100.00
77877;BME280;67251;50.844;7.978;2024-03-23T06:33:56;98059.22;;;2.05;100.00
77877;BME280;67251;50.844;7.978;2024-03-23T06:36:21;98062.69;;;2.05;100.00
77877;BME280;67251;50.844;7.978;2024-03-23T06:38:47;98068.66;;;2.08;100.00
77877;BME280;67251;50.844;7.978;2024-03-23T06:41:12;98066.16;;;2.06;100.00
77877;BME280;67251;50.844;7.978;2024-03-23T06:43:37;98074.91;;;2.07;100.00
77877;BME280;67251;50.844;7.978;2024-03-23T06:46:03;98065.34;;;2.05;100.00
77877;BME280;67251;50.844;7.978;2024-03-23T06:48:31;98061.19;;;2.11;100.00
77877;BME280;67251;50.844;7.978;2024-03-23T06:50:57;98076.72;;;2.22;100.00
77877;BME280;67251;50.844;7.978;2024-03-23T06:53:22;98070.56;;;2.30;100.00
77877;BME280;67251;50.844;7.978;2024-03-23T06:55:54;98077.16;;;2.34;100.00
77877;BME280;67251;50.844;7.978;2024-03-23T06:58:21;98079.81;;;2.34;100.00
77877;BME280;67251;50.844;7.978;2024-03-23T07:00:46;98079.00;;;2.34;100.00
77877;BME280;67251;50.844;7.978;2024-03-23T07:03:12;98077.34;;;2.33;100.00
77877;BME280;67251;50.844;7.978;2024-03-23T07:05:37;98085.09;;;2.34;100.00
77877;BME280;67251;50.844;7.978;2024-03-23T07:08:03;98088.72;;;2.33;100.00
77877;BME280;67251;50.844;7.978;2024-03-23T07:10:28;98101.75;;;2.35;100.00
77877;BME280;67251;50.844;7.978;2024-03-23T07:12:53;98100.13;;;2.34;100.00
77877;BME280;67251;50.844;7.978;2024-03-23T07:15:19;98098.47;;;2.33;100.00
77877;BME280;67251;50.844;7.978;2024-03-23T07:17:47;98084.59;;;2.30;100.00
77877;BME280;67251;50.844;7.978;2024-03-23T07:20:12;98081.13;;;2.38;100.00
77877;BME280;67251;50.844;7.978;2024-03-23T07:22:38;98077.47;;;2.47;100.00
77877;BME280;67251;50.844;7.978;2024-03-23T07:25:05;98088.19;;;2.54;100.00
77877;BME280;67251;50.844;7.978;2024-03-23T07:27:31;98088.03;;;2.64;100.00
77877;BME280;67251;50.844;7.978;2024-03-23T07:29:57;98093.25;;;2.72;100.00
77877;BME280;67251;50.844;7.978;2024-03-23T07:32:22;98097.69;;;2.79;100.00
77877;BME280;67251;50.844;7.978;2024-03-23T07:34:48;98093.88;;;2.82;100.00
77877;BME280;67251;50.844;7.978;2024-03-23T07:37:13;98100.00;;;2.83;100.00
77877;BME280;67251;50.844;7.978;2024-03-23T07:39:39;98097.53;;;2.81;100.00
77877;BME280;67251;50.844;7.978;2024-03-23T07:42:05;98104.28;;;2.84;100.00
77877;BME280;67251;50.844;7.978;2024-03-23T07:44:30;98110.84;;;2.96;100.00
77877;BME280;67251;50.844;7.978;2024-03-23T07:46:56;98101.88;;;3.13;100.00
77877;BME280;67251;50.844;7.978;2024-03-23T07:49:21;98102.22;;;3.41;100.00
77877;BME280;67251;50.844;7.978;2024-03-23T07:51:46;98108.03;;;3.68;100.00
77877;BME280;67251;50.844;7.978;2024-03-23T07:54:12;98106.31;;;3.75;100.00
77877;BME280;67251;50.844;7.978;2024-03-23T07:56:37;98112.13;;;3.70;100.00
77877;BME280;67251;50.844;7.978;2024-03-23T07:59:03;98112.06;;;3.78;100.00
77877;BME280;67251;50.844;7.978;2024-03-23T08:01:28;98110.31;;;3.94;100.00
77877;BME280;67251;50.844;7.978;2024-03-23T08:03:54;98112.47;;;4.13;100.00
77877;BME280;67251;50.844;7.978;2024-03-23T08:06:20;98119.13;;;4.47;100.00
77877;BME280;67251;50.844;7.978;2024-03-23T08:08:48;98118.16;;;5.07;97.85
77877;BME280;67251;50.844;7.978;2024-03-23T08:11:14;98116.72;;;5.41;95.74
77877;BME280;67251;50.844;7.978;2024-03-23T08:13:41;98118.81;;;5.60;94.49
77877;BME280;67251;50.844;7.978;2024-03-23T08:16:07;98132.34;;;5.50;93.32
77877;BME280;67251;50.844;7.978;2024-03-23T08:18:33;98128.56;;;5.38;92.40
77877;BME280;67251;50.844;7.978;2024-03-23T08:21:01;98138.63;;;5.79;92.42
77877;BME280;67251;50.844;7.978;2024-03-23T08:23:28;98125.31;;;6.36;88.93
77877;BME280;67251;50.844;7.978;2024-03-23T08:26:00;98129.69;;;7.13;85.34
77877;BME280;67251;50.844;7.978;2024-03-23T08:28:26;98124.78;;;7.58;81.42
77877;BME280;67251;50.844;7.978;2024-03-23T08:30:53;98136.56;;;7.29;79.48
77877;BME280;67251;50.844;7.978;2024-03-23T08:33:18;98135.00;;;7.07;81.12
77877;BME280;67251;50.844;7.978;2024-03-23T08:35:54;98131.19;;;6.32;81.27
77877;BME280;67251;50.844;7.978;2024-03-23T08:38:20;98134.72;;;6.95;83.13
77877;BME280;67251;50.844;7.978;2024-03-23T08:40:46;98132.38;;;7.13;79.70
77877;BME280;67251;50.844;7.978;2024-03-23T08:43:11;98133.63;;;7.24;78.74
77877;BME280;67251;50.844;7.978;2024-03-23T08:45:36;98124.09;;;8.84;72.57
77877;BME280;67251;50.844;7.978;2024-03-23T08:48:02;98123.88;;;10.02;67.15
77877;BME280;67251;50.844;7.978;2024-03-23T08:50:27;98122.09;;;10.95;62.27
77877;BME280;67251;50.844;7.978;2024-03-23T08:52:53;98128.16;;;11.09;59.90
77877;BME280;67251;50.844;7.978;2024-03-23T08:55:18;98127.16;;;10.04;63.87
77877;BME280;67251;50.844;7.978;2024-03-23T08:57:43;98135.00;;;9.60;64.47
77877;BME280;67251;50.844;7.978;2024-03-23T09:00:09;98134.75;;;9.10;67.82
77877;BME280;67251;50.844;7.978;2024-03-23T09:02:36;98131.63;;;10.91;59.30
77877;BME280;67251;50.844;7.978;2024-03-23T09:05:02;98132.06;;;11.62;58.53
77877;BME280;67251;50.844;7.978;2024-03-23T09:07:30;98128.50;;;12.16;56.04
77877;BME280;67251;50.844;7.978;2024-03-23T09:09:56;98128.72;;;12.80;54.35
77877;BME280;67251;50.844;7.978;2024-03-23T09:12:21;98136.16;;;12.01;55.12
77877;BME280;67251;50.844;7.978;2024-03-23T09:14:46;98136.84;;;11.05;57.81
77877;BME280;67251;50.844;7.978;2024-03-23T09:17:12;98142.47;;;9.38;61.50
77877;BME280;67251;50.844;7.978;2024-03-23T09:19:38;98137.19;;;9.12;64.65
77877;BME280;67251;50.844;7.978;2024-03-23T09:22:05;98133.97;;;8.50;65.70
77877;BME280;67251;50.844;7.978;2024-03-23T09:24:30;98135.19;;;8.14;69.72
77877;BME280;67251;50.844;7.978;2024-03-23T09:26:57;98129.06;;;8.80;68.82
77877;BME280;67251;50.844;7.978;2024-03-23T09:29:22;98114.28;;;10.75;61.95
77877;BME280;67251;50.844;7.978;2024-03-23T09:31:48;98115.31;;;11.85;55.37
77877;BME280;67251;50.844;7.978;2024-03-23T09:34:13;98108.84;;;12.04;53.33
77877;BME280;67251;50.844;7.978;2024-03-23T09:36:38;98100.94;;;11.49;54.82
77877;BME280;67251;50.844;7.978;2024-03-23T09:39:04;98110.84;;;10.68;56.61
77877;BME280;67251;50.844;7.978;2024-03-23T09:41:30;98113.88;;;9.90;60.27
77877;BME280;67251;50.844;7.978;2024-03-23T09:43:56;98114.84;;;9.96;62.73
77877;BME280;67251;50.844;7.978;2024-03-23T09:46:21;98099.16;;;10.88;56.20
77877;BME280;67251;50.844;7.978;2024-03-23T09:48:47;98095.47;;;10.39;57.45
77877;BME280;67251;50.844;7.978;2024-03-23T09:51:13;98101.28;;;9.59;61.18
77877;BME280;67251;50.844;7.978;2024-03-23T09:53:38;98104.84;;;8.68;63.79
77877;BME280;67251;50.844;7.978;2024-03-23T09:56:04;98101.94;;;7.90;65.33
77877;BME280;67251;50.844;7.978;2024-03-23T09:58:29;98104.63;;;7.29;70.30
77877;BME280;67251;50.844;7.978;2024-03-23T10:00:57;98096.06;;;6.99;74.56
77877;BME280;67251;50.844;7.978;2024-03-23T10:03:22;98108.00;;;6.75;73.72
77877;BME280;67251;50.844;7.978;2024-03-23T10:06:00;98110.38;;;6.63;73.72
77877;BME280;67251;50.844;7.978;2024-03-23T10:08:25;98105.13;;;6.77;74.42
77877;BME280;67251;50.844;7.978;2024-03-23T10:10:51;98096.56;;;6.81;72.86
77877;BME280;67251;50.844;7.978;2024-03-23T10:13:26;98094.81;;;6.95;71.14
77877;BME280;67251;50.844;7.978;2024-03-23T10:15:56;98086.47;;;6.98;69.71
77877;BME280;67251;50.844;7.978;2024-03-23T10:18:23;98087.88;;;7.01;69.04
77877;BME280;67251;50.844;7.978;2024-03-23T10:23:31;98075.06;;;7.72;64.58
77877;BME280;67251;50.844;7.978;2024-03-23T10:26:14;98080.69;;;7.42;64.67
77877;BME280;67251;50.844;7.978;2024-03-23T10:31:18;98078.13;;;7.76;62.38
77877;BME280;67251;50.844;7.978;2024-03-23T10:33:48;98075.59;;;7.48;61.96
77877;BME280;67251;50.844;7.978;2024-03-23T10:36:14;98082.25;;;7.17;62.89
77877;BME280;67251;50.844;7.978;2024-03-23T10:38:41;98087.47;;;6.62;67.58
77877;BME280;67251;50.844;7.978;2024-03-23T10:41:08;98132.66;;;6.13;75.59
77877;BME280;67251;50.844;7.978;2024-03-23T10:43:36;98140.28;;;5.29;79.61
77877;BME280;67251;50.844;7.978;2024-03-23T10:46:01;98140.38;;;4.61;85.85
77877;BME280;67251;50.844;7.978;2024-03-23T10:48:26;98121.88;;;4.16;90.36
77877;BME280;67251;50.844;7.978;2024-03-23T10:50:53;98125.38;;;3.93;94.76
77877;BME280;67251;50.844;7.978;2024-03-23T10:53:19;98128.59;;;3.80;93.79
77877;BME280;67251;50.844;7.978;2024-03-23T10:55:48;98122.19;;;3.75;95.66
77877;BME280;67251;50.844;7.978;2024-03-23T10:58:14;98108.94;;;3.75;94.22
77877;BME280;67251;50.844;7.978;2024-03-23T11:00:40;98127.13;;;3.78;95.20
77877;BME280;67251;50.844;7.978;2024-03-23T11:03:31;98107.50;;;3.95;95.63
77877;BME280;67251;50.844;7.978;2024-03-23T11:05:57;98102.31;;;4.40;96.49
77877;BME280;67251;50.844;7.978;2024-03-23T11:08:37;98094.63;;;5.91;92.38
77877;BME280;67251;50.844;7.978;2024-03-23T11:11:21;98086.03;;;7.42;87.57
77877;BME280;67251;50.844;7.978;2024-03-23T11:13:50;98080.66;;;8.50;80.29
77877;BME280;67251;50.844;7.978;2024-03-23T11:16:28;98074.31;;;9.29;73.32
77877;BME280;67251;50.844;7.978;2024-03-23T11:19:37;98067.94;;;9.68;69.18
77877;BME280;67251;50.844;7.978;2024-03-23T11:22:04;98069.63;;;9.63;67.43
77877;BME280;67251;50.844;7.978;2024-03-23T11:24:30;98067.19;;;9.61;70.52
77877;BME280;67251;50.844;7.978;2024-03-23T11:26:56;98061.59;;;9.69;69.48
77877;BME280;67251;50.844;7.978;2024-03-23T11:29:21;98061.97;;;9.35;68.11
77877;BME280;67251;50.844;7.978;2024-03-23T11:31:52;98054.81;;;8.64;68.04
77877;BME280;67251;50.844;7.978;2024-03-23T11:34:19;98066.69;;;8.08;68.14
77877;BME280;67251;50.844;7.978;2024-03-23T11:36:47;98084.44;;;7.61;69.56
77877;BME280;67251;50.844;7.978;2024-03-23T11:39:17;98127.75;;;6.94;76.24
77877;BME280;67251;50.844;7.978;2024-03-23T11:41:53;98162.53;;;5.64;82.49
77877;BME280;67251;50.844;7.978;2024-03-23T11:44:20;98167.56;;;4.55;90.20
77877;BME280;67251;50.844;7.978;2024-03-23T11:46:46;98170.78;;;3.82;94.35
77877;BME280;67251;50.844;7.978;2024-03-23T11:49:21;98181.84;;;3.46;100.00
77877;BME280;67251;50.844;7.978;2024-03-23T11:51:48;98161.22;;;3.42;99.84
77877;BME280;67251;50.844;7.978;2024-03-23T11:54:13;98165.34;;;3.75;98.94
77877;BME280;67251;50.844;7.978;2024-03-23T11:56:39;98162.53;;;4.23;98.08
77877;BME280;67251;50.844;7.978;2024-03-23T11:59:04;98151.13;;;4.75;99.44
77877;BME280;67251;50.844;7.978;2024-03-23T12:01:30;98156.47;;;5.34;99.02
77877;BME280;67251;50.844;7.978;2024-03-23T12:03:56;98145.34;;;5.96;93.85
77877;BME280;67251;50.844;7.978;2024-03-23T12:06:21;98135.47;;;6.11;87.29
77877;BME280;67251;50.844;7.978;2024-03-23T12:08:46;98138.66;;;6.22;88.51
77877;BME280;67251;50.844;7.978;2024-03-23T12:11:15;98134.38;;;6.49;88.33
77877;BME280;67251;50.844;7.978;2024-03-23T12:13:42;98125.53;;;6.98;86.49
77877;BME280;67251;50.844;7.978;2024-03-23T12:16:12;98124.66;;;7.25;86.54
77877;BME280;67251;50.844;7.978;2024-03-23T12:18:39;98114.97;;;7.65;85.84
77877;BME280;67251;50.844;7.978;2024-03-23T12:21:05;98117.94;;;7.97;83.22
77877;BME280;67251;50.844;7.978;2024-03-23T12:23:31;98121.41;;;7.91;80.47
77877;BME280;67251;50.844;7.978;2024-03-23T12:25:57;98123.59;;;7.67;78.38
77877;BME280;67251;50.844;7.978;2024-03-23T12:28:22;98130.66;;;7.47;80.54
77877;BME280;67251;50.844;7.978;2024-03-23T12:30:48;98122.22;;;7.30;74.22
77877;BME280;67251;50.844;7.978;2024-03-23T12:33:13;98150.53;;;7.10;75.08
77877;BME280;67251;50.844;7.978;2024-03-23T12:35:39;98160.16;;;6.27;77.72
77877;BME280;67251;50.844;7.978;2024-03-23T12:38:04;98168.53;;;5.22;79.93
77877;BME280;67251;50.844;7.978;2024-03-23T12:40:29;98166.78;;;4.47;84.11
77877;BME280;67251;50.844;7.978;2024-03-23T12:42:55;98182.78;;;3.93;86.02
77877;BME280;67251;50.844;7.978;2024-03-23T12:45:23;98191.72;;;3.61;88.76
77877;BME280;67251;50.844;7.978;2024-03-23T12:47:49;98187.69;;;3.33;90.72
77877;BME280;67251;50.844;7.978;2024-03-23T12:50:15;98194.88;;;3.08;91.67
77877;BME280;67251;50.844;7.978;2024-03-23T12:52:40;98178.41;;;2.98;93.90
77877;BME280;67251;50.844;7.978;2024-03-23T12:55:06;98175.88;;;3.13;93.45
77877;BME280;67251;50.844;7.978;2024-03-23T12:57:32;98172.72;;;3.18;92.97
77877;BME280;67251;50.844;7.978;2024-03-23T12:59:58;98161.66;;;3.14;93.27
77877;BME280;67251;50.844;7.978;2024-03-23T13:02:23;98152.47;;;3.41;93.92
77877;BME280;67251;50.844;7.978;2024-03-23T13:04:52;98145.63;;;3.86;91.43
77877;BME280;67251;50.844;7.978;2024-03-23T13:07:18;98153.56;;;3.86;92.95
77877;BME280;67251;50.844;7.978;2024-03-23T13:09:44;98165.84;;;3.71;90.14
77877;BME280;67251;50.844;7.978;2024-03-23T13:12:11;98178.88;;;3.49;92.49
77877;BME280;67251;50.844;7.978;2024-03-23T13:14:39;98171.69;;;3.27;92.42
77877;BME280;67251;50.844;7.978;2024-03-23T13:17:05;98171.22;;;3.23;94.30
77877;BME280;67251;50.844;7.978;2024-03-23T13:19:31;98181.28;;;3.20;94.68
77877;BME280;67251;50.844;7.978;2024-03-23T13:21:58;98170.84;;;2.87;92.81
77877;BME280;67251;50.844;7.978;2024-03-23T13:24:24;98171.38;;;2.58;95.54
77877;BME280;67251;50.844;7.978;2024-03-23T13:26:51;98156.34;;;2.59;96.48
77877;BME280;67251;50.844;7.978;2024-03-23T13:29:17;98157.63;;;2.87;96.11
77877;BME280;67251;50.844;7.978;2024-03-23T13:31:42;98146.22;;;3.34;95.50
77877;BME280;67251;50.844;7.978;2024-03-23T13:34:08;98157.03;;;3.55;94.37
77877;BME280;67251;50.844;7.978;2024-03-23T13:36:33;98167.31;;;3.42;93.18
77877;BME280;67251;50.844;7.978;2024-03-23T13:38:58;98170.09;;;3.10;95.62
77877;BME280;67251;50.844;7.978;2024-03-23T13:41:24;98168.03;;;2.80;95.89
77877;BME280;67251;50.844;7.978;2024-03-23T13:43:50;98154.06;;;2.64;98.01
77877;BME280;67251;50.844;7.978;2024-03-23T13:46:15;98151.22;;;2.65;98.34
77877;BME280;67251;50.844;7.978;2024-03-23T13:48:40;98160.59;;;2.84;99.12
77877;BME280;67251;50.844;7.978;2024-03-23T13:51:07;98154.44;;;3.00;100.00
77877;BME280;67251;50.844;7.978;2024-03-23T13:53:32;98155.94;;;3.02;100.00
77877;BME280;67251;50.844;7.978;2024-03-23T13:55:58;98154.53;;;3.23;100.00
77877;BME280;67251;50.844;7.978;2024-03-23T13:58:23;98154.53;;;3.85;99.46
77877;BME280;67251;50.844;7.978;2024-03-23T14:00:50;98148.22;;;4.70;97.98
77877;BME280;67251;50.844;7.978;2024-03-23T14:03:16;98128.59;;;5.23;93.49